Time;durP1;ratioP1;P1;durP2;ratioP2;P2;SDS_P1;SDS_P2;PMS_P1;PMS_P2;Temp;Humidity;BMP_temperature;BMP_pressure;BME280_temperature;BME280_humidity;BME280_pressure;Samples;Min_cycle;Max_cycle;Signal;HPM_P1;HPM_P2
2023/09/18 00:00:49;;;;;;;21.30;12.77;;;;;;;16.04;86.73;94417.56;5084181;28;20103;-80
2023/09/18 00:03:20;;;;;;;27.17;12.88;;;;;;;16.00;87.26;94420.13;5083887;28;20202;-80
2023/09/18 00:05:47;;;;;;;19.90;13.00;;;;;;;15.99;87.59;94412.41;5083062;28;20028;-80
2023/09/18 00:08:13;;;;;;;18.65;12.90;;;;;;;16.02;87.43;94415.22;5083910;28;20043;-81
2023/09/18 00:10:38;;;;;;;24.58;12.55;;;;;;;16.04;87.25;94421.03;5084074;28;20315;-81
2023/09/18 00:13:04;;;;;;;18.23;12.15;;;;;;;16.08;87.17;94409.59;5083645;28;20296;-81
2023/09/18 00:15:30;;;;;;;25.13;12.65;;;;;;;16.08;86.36;94414.97;5083845;28;20031;-81
2023/09/18 00:17:56;;;;;;;18.15;12.82;;;;;;;16.07;86.38;94411.50;5083641;28;20313;-81
2023/09/18 00:20:26;;;;;;;22.10;13.13;;;;;;;16.05;86.36;94413.75;5083505;28;20044;-81
2023/09/18 00:22:52;;;;;;;22.17;12.05;;;;;;;16.02;86.35;94409.06;5083654;28;20025;-82
2023/09/18 00:25:18;;;;;;;21.27;12.25;;;;;;;15.98;86.64;94413.53;5065598;28;20096;-82
2023/09/18 00:27:43;;;;;;;19.52;12.20;;;;;;;15.93;86.50;94419.09;5083573;28;20032;-82
2023/09/18 00:30:09;;;;;;;20.42;11.95;;;;;;;15.97;86.48;94412.72;5083608;28;20083;-81
2023/09/18 00:32:34;;;;;;;22.00;12.50;;;;;;;15.99;86.56;94413.16;5083274;28;20032;-81
2023/09/18 00:34:59;;;;;;;22.80;14.35;;;;;;;15.96;86.95;94415.75;5083427;28;20017;-82
2023/09/18 00:37:25;;;;;;;30.92;13.02;;;;;;;15.97;86.93;94425.38;5083281;28;20024;-82
2023/09/18 00:39:50;;;;;;;18.23;12.93;;;;;;;15.91;86.73;94416.75;5083316;28;20039;-81
2023/09/18 00:42:17;;;;;;;20.83;13.32;;;;;;;15.90;86.93;94422.47;5083149;28;20031;-80
2023/09/18 00:44:43;;;;;;;21.70;13.35;;;;;;;15.90;87.06;94417.09;5083313;28;20017;-81
2023/09/18 00:47:09;;;;;;;26.17;14.32;;;;;;;15.94;87.30;94420.69;5065681;28;20338;-81
2023/09/18 00:49:38;;;;;;;21.88;14.15;;;;;;;15.90;87.80;94428.63;5065225;28;20084;-80
2023/09/18 00:52:04;;;;;;;26.27;12.90;;;;;;;15.87;88.70;94417.75;5083050;28;20017;-81
2023/09/18 00:54:31;;;;;;;22.33;14.15;;;;;;;15.84;88.51;94419.97;5082302;28;20016;-80
2023/09/18 00:56:57;;;;;;;28.00;15.30;;;;;;;15.81;88.65;94415.28;5083048;28;20044;-80
2023/09/18 00:59:22;;;;;;;26.42;14.55;;;;;;;15.85;88.65;94423.44;5083149;28;20066;-81
2023/09/18 01:01:50;;;;;;;28.35;14.38;;;;;;;15.84;88.57;94427.25;5083013;28;20087;-81
2023/09/18 01:04:17;;;;;;;27.13;16.38;;;;;;;15.81;89.00;94427.91;5081689;28;20320;-81
2023/09/18 01:06:42;;;;;;;25.67;15.32;;;;;;;15.82;88.90;94435.66;5083122;28;20028;-80
2023/09/18 01:09:12;;;;;;;23.08;14.43;;;;;;;15.83;89.08;94437.25;5083305;28;20200;-82
2023/09/18 01:12:02;;;;;;;20.63;14.65;;;;;;;15.87;89.07;94436.56;5083125;28;20020;-80
2023/09/18 01:14:39;;;;;;;31.67;15.45;;;;;;;15.89;88.46;94439.69;5082912;28;20111;-79
2023/09/18 01:17:06;;;;;;;26.20;14.77;;;;;;;15.90;88.46;94433.22;5082467;28;20024;-80
2023/09/18 01:19:49;;;;;;;21.58;14.48;;;;;;;15.94;88.21;94434.13;5082714;28;20262;-80
2023/09/18 01:22:16;;;;;;;31.23;15.18;;;;;;;15.88;88.10;94432.78;5082790;28;20021;-80
2023/09/18 01:24:44;;;;;;;29.20;15.55;;;;;;;15.90;88.10;94431.31;5082760;28;20157;-80
2023/09/18 01:27:13;;;;;;;31.80;15.68;;;;;;;15.93;87.74;94433.31;5082794;28;20070;-80
2023/09/18 01:29:38;;;;;;;25.55;14.40;;;;;;;15.91;87.52;94435.56;5064795;28;20035;-81
2023/09/18 01:32:04;;;;;;;22.35;15.38;;;;;;;15.91;87.52;94432.09;5082729;28;20020;-80
2023/09/18 01:34:33;;;;;;;25.38;17.05;;;;;;;15.90;87.63;94435.91;5082680;28;20032;-80
2023/09/18 01:37:00;;;;;;;30.25;18.45;;;;;;;15.86;87.91;94432.31;5082708;28;20020;-80
2023/09/18 01:39:31;;;;;;;27.25;18.30;;;;;;;15.83;88.53;94431.88;5082530;28;20027;-80
2023/09/18 01:41:58;;;;;;;25.60;17.73;;;;;;;15.85;88.72;94436.88;5082364;28;20088;-80
2023/09/18 01:44:23;;;;;;;29.98;18.15;;;;;;;15.87;88.26;94428.50;5082470;28;20091;-80
2023/09/18 01:46:51;;;;;;;26.77;17.67;;;;;;;15.86;88.37;94429.63;5082654;28;20066;-80
2023/09/18 01:49:26;;;;;;;27.83;19.20;;;;;;;15.84;88.24;94435.31;5082530;28;20047;-80
2023/09/18 01:51:51;;;;;;;28.10;19.10;;;;;;;15.75;88.90;94435.41;5082393;28;20099;-80
2023/09/18 01:54:17;;;;;;;27.38;17.73;;;;;;;15.78;88.64;94436.66;5082448;28;20322;-79
2023/09/18 01:56:42;;;;;;;24.88;18.17;;;;;;;15.81;88.53;94433.28;5082428;28;20048;-81
2023/09/18 01:59:07;;;;;;;30.70;18.98;;;;;;;15.72;88.44;94428.00;5082716;28;20021;-81
2023/09/18 02:01:34;;;;;;;30.85;19.52;;;;;;;15.70;88.27;94435.59;5082469;28;20021;-81
2023/09/18 02:04:00;;;;;;;30.60;19.02;;;;;;;15.75;87.70;94437.31;5082241;28;20036;-80
2023/09/18 02:06:25;;;;;;;29.98;19.23;;;;;;;15.69;88.23;94431.31;5082477;28;20230;-80
2023/09/18 02:08:51;;;;;;;30.55;20.27;;;;;;;15.63;88.57;94438.81;5082304;28;20095;-81
2023/09/18 02:11:16;;;;;;;26.45;19.20;;;;;;;15.65;88.57;94443.84;5082239;28;20047;-80
2023/09/18 02:13:42;;;;;;;28.98;18.20;;;;;;;15.66;87.96;94445.44;5082143;28;20040;-80
2023/09/18 02:16:07;;;;;;;28.98;17.63;;;;;;;15.59;88.08;94435.22;5082562;28;20372;-81
2023/09/18 02:18:33;;;;;;;28.38;18.95;;;;;;;15.52;88.19;94443.00;5064467;28;20310;-81
2023/09/18 02:20:58;;;;;;;25.05;17.33;;;;;;;15.49;88.78;94445.56;5082378;28;20028;-81
2023/09/18 02:23:23;;;;;;;28.05;17.45;;;;;;;15.52;88.78;94442.25;5082071;28;20032;-81
2023/09/18 02:25:56;;;;;;;27.50;18.02;;;;;;;15.50;88.60;94442.56;5082082;28;20037;-81
2023/09/18 02:28:21;;;;;;;31.08;19.10;;;;;;;15.48;88.90;94441.31;5064693;28;20104;-81
2023/09/18 02:30:46;;;;;;;27.40;19.42;;;;;;;15.49;89.10;94450.94;5068065;28;20055;-81
2023/09/18 02:33:12;;;;;;;27.60;18.13;;;;;;;15.48;89.47;94446.69;5085808;28;20100;-81
2023/09/18 02:35:37;;;;;;;25.17;17.17;;;;;;;15.51;88.88;94444.16;5085676;28;20027;-81
2023/09/18 02:38:03;;;;;;;26.20;18.25;;;;;;;15.51;88.90;94441.47;5085629;28;20058;-81
2023/09/18 02:40:29;;;;;;;27.35;19.15;;;;;;;15.46;89.03;94441.66;5085750;28;20024;-81
2023/09/18 02:42:54;;;;;;;25.77;18.33;;;;;;;15.44;89.40;94433.13;5085491;28;20043;-81
2023/09/18 02:45:20;;;;;;;30.33;19.80;;;;;;;15.43;89.67;94440.41;5085554;28;20091;-80
2023/09/18 02:47:45;;;;;;;26.33;18.98;;;;;;;15.43;89.64;94442.31;5085363;28;20281;-79
2023/09/18 02:50:11;;;;;;;31.55;19.00;;;;;;;15.47;89.30;94437.06;5085745;28;20054;-80
2023/09/18 02:52:36;;;;;;;26.33;17.70;;;;;;;15.45;89.33;94445.47;5085604;28;20029;-80
2023/09/18 02:55:03;;;;;;;26.42;18.98;;;;;;;15.45;89.33;94446.25;5085404;28;20095;-80
2023/09/18 02:57:28;;;;;;;27.05;19.83;;;;;;;15.43;89.23;94442.31;5085198;28;20020;-80
2023/09/18 02:59:53;;;;;;;31.05;19.85;;;;;;;15.42;89.33;94444.19;5085230;28;20028;-81
2023/09/18 03:02:19;;;;;;;28.05;19.35;;;;;;;15.41;89.66;94452.59;5085213;28;20024;-81
2023/09/18 03:04:44;;;;;;;26.95;19.80;;;;;;;15.37;89.98;94447.09;5085035;28;20025;-82
2023/09/18 03:07:13;;;;;;;31.98;20.75;;;;;;;15.39;90.32;94452.16;5067182;28;20020;-81
2023/09/18 03:09:38;;;;;;;31.85;19.95;;;;;;;15.34;90.36;94442.38;5085373;28;20196;-80
2023/09/18 03:12:04;;;;;;;27.10;19.73;;;;;;;15.36;90.23;94448.19;5084625;28;20031;-81
2023/09/18 03:14:29;;;;;;;30.23;20.20;;;;;;;15.35;89.89;94441.28;5085124;28;20023;-81
2023/09/18 03:16:55;;;;;;;31.55;20.02;;;;;;;15.37;89.90;94449.00;5084879;28;20192;-80
2023/09/18 03:19:22;;;;;;;34.08;20.55;;;;;;;15.33;89.88;94440.81;5084737;28;20031;-80
2023/09/18 03:21:47;;;;;;;31.33;21.10;;;;;;;15.34;90.45;94436.22;5084910;28;20331;-81
2023/09/18 03:24:13;;;;;;;28.35;20.13;;;;;;;15.32;90.90;94428.50;5084675;28;20087;-81
2023/09/18 03:26:38;;;;;;;32.88;20.38;;;;;;;15.28;90.55;94435.63;5085044;28;20024;-80
2023/09/18 03:29:04;;;;;;;38.13;21.83;;;;;;;15.27;90.59;94431.38;5084872;28;20096;-80
2023/09/18 03:31:29;;;;;;;32.33;19.83;;;;;;;15.29;89.91;94429.16;5084601;28;20031;-81
2023/09/18 03:33:55;;;;;;;29.27;20.13;;;;;;;15.24;89.82;94430.16;5084557;28;20050;-80
2023/09/18 03:36:23;;;;;;;31.17;18.75;;;;;;;15.28;89.83;94432.94;5084363;28;20021;-81
2023/09/18 03:38:49;;;;;;;27.23;19.02;;;;;;;15.17;90.07;94431.78;5084616;28;20024;-81
2023/09/18 03:41:14;;;;;;;26.88;18.73;;;;;;;15.16;90.37;94432.88;5084473;28;20048;-80
2023/09/18 03:43:40;;;;;;;34.35;18.45;;;;;;;15.16;90.50;94427.50;5084281;28;20024;-80
2023/09/18 03:46:06;;;;;;;24.17;17.73;;;;;;;15.11;90.12;94419.66;5084373;28;20060;-80
2023/09/18 03:48:37;;;;;;;27.88;19.05;;;;;;;15.03;90.33;94422.06;5084121;28;20130;-81
2023/09/18 03:51:04;;;;;;;29.75;19.40;;;;;;;14.93;90.97;94425.16;5084209;28;20024;-81
2023/09/18 03:53:29;;;;;;;33.00;20.50;;;;;;;14.86;92.03;94416.84;5066418;28;20077;-81
2023/09/18 03:55:55;;;;;;;34.55;20.38;;;;;;;14.88;92.34;94420.00;5084193;28;20294;-81
2023/09/18 03:58:20;;;;;;;28.92;20.27;;;;;;;14.89;92.21;94424.22;5084080;28;20025;-81
2023/09/18 04:00:45;;;;;;;26.02;18.73;;;;;;;14.86;92.64;94422.22;5083856;28;20281;-81
2023/09/18 04:03:11;;;;;;;32.72;19.42;;;;;;;14.85;92.95;94423.31;5083992;28;20050;-81
2023/09/18 04:05:36;;;;;;;30.63;18.75;;;;;;;14.76;93.76;94414.53;5083977;28;20086;-80
2023/09/18 04:08:05;;;;;;;33.20;21.92;;;;;;;14.69;94.36;94419.63;5083690;28;20028;-79
2023/09/18 04:10:30;;;;;;;33.50;21.27;;;;;;;14.72;94.62;94419.78;5083792;28;20225;-79
2023/09/18 04:12:56;;;;;;;33.45;22.10;;;;;;;14.74;94.46;94422.13;5083397;28;20037;-79
2023/09/18 04:15:22;;;;;;;38.20;20.42;;;;;;;14.75;94.68;94429.84;5083982;28;20026;-79
2023/09/18 04:17:48;;;;;;;37.65;22.08;;;;;;;14.75;94.58;94421.00;5083637;28;20096;-81
2023/09/18 04:20:14;;;;;;;33.35;20.65;;;;;;;14.79;94.88;94432.66;5083551;28;20329;-81
2023/09/18 04:22:44;;;;;;;35.45;21.88;;;;;;;14.78;95.10;94433.78;5083571;28;20050;-81
2023/09/18 04:25:10;;;;;;;40.05;21.92;;;;;;;14.78;95.43;94436.47;5083891;28;20078;-81
2023/09/18 04:27:35;;;;;;;37.75;21.98;;;;;;;14.89;95.00;94444.91;5083490;28;20020;-80
2023/09/18 04:30:01;;;;;;;42.75;21.45;;;;;;;14.92;94.94;94445.06;5083410;28;20029;-80
2023/09/18 04:32:29;;;;;;;33.92;21.70;;;;;;;14.97;94.89;94444.84;5065402;28;20021;-80
2023/09/18 04:34:54;;;;;;;30.13;20.38;;;;;;;15.01;94.36;94443.09;5083262;28;20307;-80
2023/09/18 04:37:20;;;;;;;33.03;21.45;;;;;;;15.04;94.23;94442.44;5083482;28;20020;-80
2023/09/18 04:39:45;;;;;;;34.17;22.65;;;;;;;15.04;94.51;94447.81;5083180;28;20032;-80
2023/09/18 04:42:10;;;;;;;33.58;19.55;;;;;;;15.14;94.37;94448.53;5083562;28;20074;-80
2023/09/18 04:44:36;;;;;;;31.10;21.42;;;;;;;15.15;94.08;94442.84;5065316;28;20032;-80
2023/09/18 04:47:01;;;;;;;37.10;22.10;;;;;;;15.25;94.54;94444.34;5082874;28;20330;-80
2023/09/18 04:49:27;;;;;;;37.67;21.35;;;;;;;15.32;93.92;94449.97;5083184;28;20031;-80
2023/09/18 04:51:53;;;;;;;30.02;21.00;;;;;;;15.45;93.83;94445.47;5082581;28;20043;-80
2023/09/18 04:54:19;;;;;;;32.38;20.42;;;;;;;15.59;93.07;94440.59;5082985;28;20050;-80
2023/09/18 04:56:45;;;;;;;39.60;22.73;;;;;;;15.72;93.12;94436.06;5083012;28;20020;-80
2023/09/18 04:59:10;;;;;;;29.50;21.33;;;;;;;15.86;92.18;94435.00;5083135;28;20024;-81
2023/09/18 05:01:36;;;;;;;29.15;20.08;;;;;;;15.99;91.80;94440.06;5082873;28;20032;-80
2023/09/18 05:04:01;;;;;;;32.08;21.27;;;;;;;16.13;90.57;94445.13;5082622;28;20028;-81
2023/09/18 05:06:27;;;;;;;30.65;20.85;;;;;;;16.19;89.92;94449.19;5081087;28;20032;-81
2023/09/18 05:08:54;;;;;;;32.40;21.35;;;;;;;16.29;89.55;94441.81;5081089;28;20024;-81
2023/09/18 05:11:19;;;;;;;31.80;20.33;;;;;;;16.39;88.87;94444.06;5081467;28;20060;-81
2023/09/18 05:13:44;;;;;;;32.85;19.83;;;;;;;16.50;88.68;94429.03;5082356;28;20053;-81
2023/09/18 05:16:10;;;;;;;32.40;19.95;;;;;;;16.65;88.45;94447.19;5081851;28;20024;-80
2023/09/18 05:18:36;;;;;;;34.90;20.17;;;;;;;16.71;87.86;94439.69;5082317;28;20087;-80
2023/09/18 05:21:01;;;;;;;29.70;20.45;;;;;;;16.72;86.85;94446.63;5082440;28;20032;-80
2023/09/18 05:23:27;;;;;;;33.78;20.42;;;;;;;16.73;86.65;94458.16;5082651;28;20073;-81
2023/09/18 05:25:53;;;;;;;35.85;20.17;;;;;;;16.76;86.08;94452.91;5082691;28;20093;-81
2023/09/18 05:28:18;;;;;;;37.13;23.08;;;;;;;16.81;86.44;94455.41;5082729;28;20058;-81
2023/09/18 05:30:43;;;;;;;34.60;22.00;;;;;;;16.92;85.55;94453.03;5082667;28;20092;-80
2023/09/18 05:33:09;;;;;;;32.42;19.20;;;;;;;16.96;84.90;94453.16;5082240;28;20027;-82
2023/09/18 05:35:44;;;;;;;30.25;18.35;;;;;;;17.04;84.34;94457.63;5082807;28;20024;-83
2023/09/18 05:38:13;;;;;;;30.20;19.05;;;;;;;17.04;83.93;94449.56;5082761;28;20020;-83
2023/09/18 05:40:39;;;;;;;31.05;20.80;;;;;;;17.08;83.95;94455.84;5082903;28;20276;-83
2023/09/18 05:43:04;;;;;;;29.90;18.67;;;;;;;17.12;84.17;94455.94;5082505;28;20021;-83
2023/09/18 05:45:31;;;;;;;36.63;20.98;;;;;;;17.11;84.49;94452.44;5082551;28;20021;-82
2023/09/18 05:48:03;;;;;;;40.15;20.02;;;;;;;17.22;84.13;94455.47;5082542;28;20021;-83
2023/09/18 05:50:32;;;;;;;38.08;19.17;;;;;;;17.37;83.80;94459.34;5082602;28;20086;-83
2023/09/18 05:53:00;;;;;;;32.00;18.70;;;;;;;17.44;83.46;94465.75;5082539;28;20032;-81
2023/09/18 05:55:26;;;;;;;31.05;18.33;;;;;;;17.44;83.22;94462.25;5082535;28;20047;-81
2023/09/18 05:57:53;;;;;;;32.97;19.90;;;;;;;17.50;82.88;94462.78;5082344;28;20082;-82
2023/09/18 06:00:18;;;;;;;34.28;18.67;;;;;;;17.63;82.69;94461.63;5082347;28;20023;-81
2023/09/18 06:02:45;;;;;;;30.73;19.08;;;;;;;17.72;81.97;94459.56;5083331;28;20032;-81
2023/09/18 06:05:11;;;;;;;28.88;18.67;;;;;;;17.80;81.06;94465.94;5086257;28;20021;-81
2023/09/18 06:07:36;;;;;;;32.10;18.98;;;;;;;17.83;81.08;94466.06;5068538;28;20070;-81
2023/09/18 06:10:02;;;;;;;28.30;19.90;;;;;;;17.90;80.75;94457.38;5086186;28;20085;-81
2023/09/18 06:12:27;;;;;;;31.30;18.38;;;;;;;17.97;79.88;94462.97;5067887;28;20238;-82
2023/09/18 06:14:53;;;;;;;25.30;17.48;;;;;;;17.98;80.36;94461.06;5085835;28;20017;-83
2023/09/18 06:17:18;;;;;;;28.23;18.30;;;;;;;17.89;79.87;94458.53;5068513;28;20269;-86
2023/09/18 06:19:45;;;;;;;33.00;18.90;;;;;;;17.86;80.68;94461.91;5068480;28;20095;-86
2023/09/18 06:22:11;;;;;;;30.02;18.70;;;;;;;17.87;81.51;94459.97;5086328;28;20016;-85
2023/09/18 06:24:37;;;;;;;28.42;20.85;;;;;;;17.86;80.20;94470.00;5086201;28;20223;-85
2023/09/18 06:27:05;;;;;;;37.03;19.83;;;;;;;18.05;80.38;94474.72;5085580;28;20016;-87
2023/09/18 06:29:32;;;;;;;31.65;19.77;;;;;;;18.27;80.62;94461.78;5085797;28;20036;-75
2023/09/18 06:31:57;;;;;;;28.17;18.15;;;;;;;18.48;79.04;94475.03;5085945;28;20141;-75
2023/09/18 06:34:23;;;;;;;29.70;18.58;;;;;;;18.57;77.64;94468.34;5085902;28;20315;-74
2023/09/18 06:36:49;;;;;;;29.77;18.30;;;;;;;18.67;76.94;94472.44;5085350;28;20028;-76
2023/09/18 06:39:15;;;;;;;29.05;17.88;;;;;;;18.71;76.74;94470.59;5085596;28;20311;-76
2023/09/18 06:41:40;;;;;;;30.30;17.58;;;;;;;18.74;76.39;94469.88;5085682;28;20031;-79
2023/09/18 06:44:06;;;;;;;34.58;18.60;;;;;;;18.93;75.91;94471.91;5085588;28;20036;-78
2023/09/18 06:46:31;;;;;;;39.15;17.88;;;;;;;19.04;75.50;94467.53;5085390;28;20393;-79
2023/09/18 06:48:57;;;;;;;25.85;15.80;;;;;;;19.17;74.92;94476.31;5085572;28;20367;-78
2023/09/18 06:51:25;;;;;;;26.67;17.95;;;;;;;19.27;74.10;94474.97;5085513;28;20029;-79
2023/09/18 06:53:51;;;;;;;26.83;16.92;;;;;;;19.32;73.58;94473.94;5085565;28;20222;-79
2023/09/18 06:56:16;;;;;;;30.58;18.30;;;;;;;19.40;73.26;94467.53;5084081;28;20032;-80
2023/09/18 06:58:41;;;;;;;27.77;17.55;;;;;;;19.43;73.76;94462.19;5067402;28;20024;-80
2023/09/18 07:01:09;;;;;;;28.15;17.73;;;;;;;19.50;73.87;94460.75;5085501;28;20051;-81
2023/09/18 07:03:36;;;;;;;22.35;17.20;;;;;;;19.65;73.50;94473.44;5085083;28;20100;-81
2023/09/18 07:06:04;;;;;;;23.98;15.23;;;;;;;19.86;72.73;94473.09;5085372;28;20276;-81
2023/09/18 07:08:30;;;;;;;27.92;16.60;;;;;;;20.02;70.52;94467.63;5083656;28;20017;-81
2023/09/18 07:10:56;;;;;;;27.98;16.60;;;;;;;20.10;70.64;94465.84;5084593;28;20310;-82
2023/09/18 07:13:21;;;;;;;22.15;15.73;;;;;;;20.28;71.00;94466.16;5084849;28;20041;-82
2023/09/18 07:15:48;;;;;;;25.25;16.13;;;;;;;20.29;69.37;94468.47;5084339;28;20016;-82
2023/09/18 07:18:14;;;;;;;29.50;15.60;;;;;;;20.44;68.34;94462.19;5085022;28;20031;-82
2023/09/18 07:20:44;;;;;;;21.88;14.18;;;;;;;20.55;68.50;94464.28;5085159;28;20211;-82
2023/09/18 07:23:09;;;;;;;20.33;13.98;;;;;;;20.63;67.52;94466.00;5084884;28;20060;-76
2023/09/18 07:25:38;;;;;;;25.77;15.43;;;;;;;20.75;67.63;94463.09;5084813;28;20040;-75
2023/09/18 07:28:05;;;;;;;32.47;15.45;;;;;;;20.76;67.27;94463.88;5084859;28;20024;-78
2023/09/18 07:30:31;;;;;;;20.95;14.80;;;;;;;20.94;67.06;94475.78;5084758;28;20167;-79
2023/09/18 07:32:57;;;;;;;20.17;14.25;;;;;;;21.08;66.30;94475.22;5087648;28;20035;-74
2023/09/18 07:35:24;;;;;;;28.20;14.50;;;;;;;21.14;66.17;94479.16;5089121;28;20341;-78
2023/09/18 07:37:49;;;;;;;22.60;14.95;;;;;;;21.07;65.48;94470.19;5084679;28;20020;-77
2023/09/18 07:40:18;;;;;;;25.77;15.77;;;;;;;21.13;65.72;94482.25;5084452;28;20024;-77
2023/09/18 07:42:44;;;;;;;25.65;15.88;;;;;;;21.24;65.05;94473.13;5084527;28;20150;-76
2023/09/18 07:45:13;;;;;;;21.60;15.27;;;;;;;21.30;64.88;94465.47;5084712;28;20020;-76
2023/09/18 07:47:38;;;;;;;24.23;15.27;;;;;;;21.44;64.63;94465.69;5084700;28;20341;-75
2023/09/18 07:50:05;;;;;;;23.77;14.65;;;;;;;21.44;64.27;94476.53;5084260;28;20088;-75
2023/09/18 07:52:31;;;;;;;22.17;14.27;;;;;;;21.44;63.63;94462.19;5084247;28;20047;-75
2023/09/18 07:54:58;;;;;;;24.20;14.05;;;;;;;21.38;63.65;94477.19;5084363;28;20021;-76
2023/09/18 07:57:23;;;;;;;22.92;15.98;;;;;;;21.16;64.10;94462.53;5084218;28;20085;-76
2023/09/18 07:59:49;;;;;;;21.90;14.75;;;;;;;21.29;65.04;94457.69;5083934;28;20029;-80
2023/09/18 08:02:14;;;;;;;21.92;13.90;;;;;;;21.24;64.22;94466.91;5084176;28;20025;-77
2023/09/18 08:04:40;;;;;;;20.58;14.10;;;;;;;21.27;64.22;94463.50;5084059;28;20374;-78
2023/09/18 08:07:06;;;;;;;27.48;15.35;;;;;;;21.09;64.88;94460.53;5083912;28;20039;-76
2023/09/18 08:09:36;;;;;;;20.80;13.40;;;;;;;21.26;64.38;94461.13;5083675;28;20039;-76
2023/09/18 08:12:05;;;;;;;23.85;14.18;;;;;;;21.35;63.72;94459.72;5083716;28;20235;-75
2023/09/18 08:14:30;;;;;;;21.58;14.07;;;;;;;21.48;63.26;94456.81;5083807;28;20024;-75
2023/09/18 08:16:59;;;;;;;22.05;13.25;;;;;;;21.34;63.26;94465.50;5083633;28;20052;-77
2023/09/18 08:19:29;;;;;;;18.95;13.90;;;;;;;21.48;62.54;94451.41;5083946;28;20086;-77
2023/09/18 08:21:55;;;;;;;22.10;13.15;;;;;;;21.55;62.50;94454.19;5083609;28;20104;-76
2023/09/18 08:24:22;;;;;;;22.27;14.20;;;;;;;21.51;62.02;94456.06;5083792;28;20093;-75
2023/09/18 08:26:48;;;;;;;21.35;13.05;;;;;;;21.47;61.64;94456.00;5082771;28;20142;-76
2023/09/18 08:29:13;;;;;;;20.60;12.55;;;;;;;21.62;61.63;94448.88;5083669;28;20200;-76
2023/09/18 08:31:39;;;;;;;17.23;12.35;;;;;;;21.73;62.44;94449.75;5083781;28;20024;-77
2023/09/18 08:34:04;;;;;;;22.05;13.75;;;;;;;21.93;62.63;94446.88;5083548;28;20031;-76
2023/09/18 08:36:30;;;;;;;22.17;13.07;;;;;;;21.98;61.36;94439.19;5083379;28;20032;-75
2023/09/18 08:38:56;;;;;;;17.85;13.32;;;;;;;22.06;61.54;94445.47;5083581;28;20020;-76
2023/09/18 08:41:26;;;;;;;21.13;13.38;;;;;;;22.15;61.26;94437.81;5083539;28;20024;-78
2023/09/18 08:43:56;;;;;;;16.02;11.75;;;;;;;22.18;59.38;94439.78;5083196;28;20033;-78
2023/09/18 08:46:22;;;;;;;19.20;12.38;;;;;;;22.30;60.08;94432.56;5083094;28;20052;-78
2023/09/18 08:48:49;;;;;;;21.38;12.85;;;;;;;22.31;60.24;94428.66;5083147;28;20036;-78
2023/09/18 08:51:16;;;;;;;23.40;13.43;;;;;;;22.40;59.93;94437.28;5083275;28;20023;-78
2023/09/18 08:53:42;;;;;;;17.73;12.63;;;;;;;22.45;59.43;94426.09;5083021;28;20196;-77
2023/09/18 08:56:08;;;;;;;20.38;12.27;;;;;;;22.46;58.59;94424.94;5083436;28;20039;-78
2023/09/18 08:58:39;;;;;;;19.52;13.32;;;;;;;22.50;59.96;94422.25;5083070;28;20081;-78
2023/09/18 09:01:06;;;;;;;18.95;12.35;;;;;;;22.47;58.65;94426.50;5083125;28;20296;-76
2023/09/18 09:03:34;;;;;;;23.40;13.00;;;;;;;22.46;57.67;94424.94;5082996;28;20036;-76
2023/09/18 09:06:01;;;;;;;18.63;12.40;;;;;;;22.42;58.35;94426.84;5083113;28;20024;-76
2023/09/18 09:08:27;;;;;;;20.23;12.57;;;;;;;22.60;58.62;94425.06;5082902;28;20032;-76
2023/09/18 09:10:53;;;;;;;20.50;11.60;;;;;;;22.66;57.02;94428.22;5082839;28;20223;-78
2023/09/18 09:13:24;;;;;;;18.40;12.02;;;;;;;22.76;56.54;94432.16;5082893;28;20044;-76
2023/09/18 09:15:53;;;;;;;20.80;10.55;;;;;;;22.89;57.09;94419.81;5082781;28;20028;-77
2023/09/18 09:18:19;;;;;;;17.08;10.85;;;;;;;22.87;56.66;94422.13;5082797;28;20028;-75
2023/09/18 09:20:59;;;;;;;15.23;10.98;;;;;;;22.96;56.39;94421.81;5082696;28;20059;-75
2023/09/18 09:23:29;;;;;;;19.38;10.98;;;;;;;23.05;55.35;94430.44;5082729;28;20218;-77
2023/09/18 09:26:15;;;;;;;16.83;11.05;;;;;;;23.16;54.65;94415.00;5082894;28;20087;-78
2023/09/18 09:28:43;;;;;;;19.20;11.43;;;;;;;23.27;55.73;94412.31;5083028;28;20024;-77
2023/09/18 09:31:10;;;;;;;16.05;8.57;;;;;;;23.35;53.22;94419.34;5083048;28;20020;-76
2023/09/18 09:33:37;;;;;;;18.65;8.98;;;;;;;23.36;53.06;94407.31;5082826;28;20013;-77
2023/09/18 09:36:04;;;;;;;10.55;6.88;;;;;;;23.49;52.41;94417.84;5082683;28;20020;-77
2023/09/18 09:38:34;;;;;;;15.57;9.60;;;;;;;23.61;53.49;94409.34;5084831;28;20088;-78
2023/09/18 09:41:01;;;;;;;13.50;8.65;;;;;;;23.69;52.57;94415.59;5086696;28;20024;-77
2023/09/18 09:43:29;;;;;;;16.80;8.45;;;;;;;23.78;52.53;94405.19;5086874;28;20046;-81
2023/09/18 09:46:01;;;;;;;13.32;8.15;;;;;;;23.79;50.26;94401.28;5086667;28;20318;-81
2023/09/18 09:48:27;;;;;;;12.68;7.90;;;;;;;23.67;50.29;94407.03;5086622;28;20310;-79
2023/09/18 09:50:59;;;;;;;20.45;7.18;;;;;;;23.69;49.76;94407.44;5086598;28;20096;-76
2023/09/18 09:53:44;;;;;;;12.13;7.03;;;;;;;23.89;49.91;94410.66;5086373;28;20020;-76
2023/09/18 09:56:10;;;;;;;30.40;7.28;;;;;;;24.02;49.51;94392.81;5086645;28;20038;-83
2023/09/18 09:58:35;;;;;;;12.30;7.68;;;;;;;24.15;49.81;94395.94;5068413;28;20060;-81
2023/09/18 10:01:08;;;;;;;16.65;6.90;;;;;;;24.27;50.21;94392.06;5085292;28;20107;-75
2023/09/18 10:03:36;;;;;;;14.65;8.43;;;;;;;24.36;48.22;94384.28;5084470;28;20017;-82
2023/09/18 10:06:06;;;;;;;11.27;7.57;;;;;;;24.41;47.87;94381.19;5084700;28;20342;-81
2023/09/18 10:08:33;;;;;;;15.93;8.18;;;;;;;24.43;46.27;94390.50;5085509;28;20047;-80
2023/09/18 10:11:07;;;;;;;11.98;6.97;;;;;;;24.49;46.76;94392.88;5084577;28;20016;-80
2023/09/18 10:14:02;;;;;;;13.15;6.75;;;;;;;24.58;45.83;94387.81;5083250;28;20044;-79
2023/09/18 10:16:31;;;;;;;10.55;6.35;;;;;;;24.65;45.87;94381.56;5081202;28;20040;-80
2023/09/18 10:19:08;;;;;;;13.82;7.63;;;;;;;24.74;45.68;94384.69;5066270;28;20036;-81
2023/09/18 10:22:32;;;;;;;16.88;7.43;;;;;;;24.69;46.05;94380.44;5084194;28;20220;-81
2023/09/18 10:25:17;;;;;;;12.95;6.65;;;;;;;24.82;45.78;94380.78;5002851;28;20074;-80
2023/09/18 10:27:45;;;;;;;12.65;7.82;;;;;;;24.92;46.25;94380.00;5004597;28;20038;-80
2023/09/18 10:30:12;;;;;;;13.65;7.60;;;;;;;24.98;45.87;94374.94;5055291;28;20103;-81
2023/09/18 10:32:40;;;;;;;10.93;6.85;;;;;;;25.05;45.37;94366.72;5085706;28;20254;-81
2023/09/18 10:35:12;;;;;;;13.85;7.60;;;;;;;25.17;44.88;94369.03;5085419;28;20027;-81
2023/09/18 10:37:38;;;;;;;13.32;7.35;;;;;;;25.16;44.20;94350.34;5067955;28;20017;-81
2023/09/18 10:40:07;;;;;;;12.27;7.05;;;;;;;25.17;45.09;94347.19;5085605;28;20020;-81
2023/09/18 10:42:34;;;;;;;11.93;6.45;;;;;;;25.26;44.54;94349.56;5085418;28;20021;-81
2023/09/18 10:45:01;;;;;;;12.07;7.18;;;;;;;25.31;44.39;94343.69;5085568;28;20373;-80
2023/09/18 10:47:27;;;;;;;17.98;7.65;;;;;;;25.37;44.99;94342.09;5085439;28;20083;-80
2023/09/18 10:49:53;;;;;;;7.68;6.45;;;;;;;25.40;44.01;94352.22;5084257;28;20253;-80
2023/09/18 10:52:19;;;;;;;10.55;6.93;;;;;;;25.38;42.90;94337.41;5085462;28;20027;-80
2023/09/18 10:54:45;;;;;;;8.55;6.38;;;;;;;25.21;43.68;94341.78;5085420;28;20012;-81
2023/09/18 10:57:11;;;;;;;10.23;6.63;;;;;;;25.39;43.97;94336.25;5085572;28;20361;-81
2023/09/18 10:59:45;;;;;;;12.25;6.07;;;;;;;25.52;44.33;94339.31;5085303;28;20056;-80
2023/09/18 11:02:15;;;;;;;13.07;5.68;;;;;;;25.61;43.17;94336.94;5085285;28;20027;-80
2023/09/18 11:04:42;;;;;;;14.23;5.93;;;;;;;25.71;42.39;94329.88;5085125;28;20025;-80
2023/09/18 11:07:09;;;;;;;12.20;5.18;;;;;;;25.82;42.36;94334.06;5085247;28;20036;-80
2023/09/18 11:09:44;;;;;;;11.88;5.72;;;;;;;25.93;41.29;94333.25;5085068;28;20016;-80
2023/09/18 11:12:11;;;;;;;10.73;5.82;;;;;;;26.01;41.95;94332.03;5084591;28;20095;-80
2023/09/18 11:14:45;;;;;;;9.60;5.70;;;;;;;26.05;40.86;94332.78;5084654;28;20344;-80
2023/09/18 11:17:29;;;;;;;8.93;5.40;;;;;;;26.06;40.40;94323.44;5084999;28;20027;-80
2023/09/18 11:20:17;;;;;;;13.98;5.32;;;;;;;26.08;41.17;94318.34;5084768;28;20335;-80